createdAt,value
2023-04-22T00:00:45.618Z,25.20
2023-04-22T00:01:45.622Z,25.22
2023-04-22T00:02:45.841Z,25.22
2023-04-22T00:03:45.982Z,25.23
2023-04-22T00:04:45.744Z,25.23
2023-04-22T00:05:45.649Z,25.23
2023-04-22T00:06:45.590Z,25.24
2023-04-22T00:07:45.638Z,25.23
2023-04-22T00:08:45.593Z,25.23
2023-04-22T00:09:45.638Z,25.23
2023-04-22T00:10:45.607Z,25.24
2023-04-22T00:11:45.634Z,25.20
2023-04-22T00:12:45.596Z,25.23
2023-04-22T00:13:45.605Z,25.20
2023-04-22T00:14:45.614Z,25.23
2023-04-22T00:15:45.605Z,25.24
2023-04-22T00:16:45.618Z,25.26
2023-04-22T00:17:45.616Z,25.22
2023-04-22T00:18:45.588Z,25.24
2023-04-22T00:19:45.578Z,25.22
2023-04-22T00:20:45.586Z,25.24
2023-04-22T00:21:45.600Z,25.19
2023-04-22T00:22:45.597Z,25.17
2023-04-22T00:23:45.609Z,25.14
2023-04-22T00:24:45.606Z,25.14
2023-04-22T00:25:45.595Z,25.13
2023-04-22T00:26:45.621Z,25.14
2023-04-22T00:27:45.640Z,25.19
2023-04-22T00:28:45.649Z,25.17
2023-04-22T00:29:45.603Z,25.19
2023-04-22T00:30:45.601Z,25.19
2023-04-22T00:31:45.639Z,25.17
2023-04-22T00:32:45.682Z,25.14
2023-04-22T00:33:45.588Z,25.13
2023-04-22T00:34:45.630Z,25.14
2023-04-22T00:35:45.577Z,25.13
2023-04-22T00:36:45.584Z,25.10
2023-04-22T00:37:45.609Z,25.10
2023-04-22T00:38:45.606Z,25.07
2023-04-22T00:39:45.595Z,25.06
2023-04-22T00:40:45.631Z,25.05
2023-04-22T00:41:45.637Z,25.03
2023-04-22T00:42:45.619Z,25.05
2023-04-22T00:43:45.640Z,25.09
2023-04-22T00:44:45.639Z,25.07
2023-04-22T00:45:45.726Z,25.09
2023-04-22T00:46:45.702Z,25.09
2023-04-22T00:47:45.737Z,25.07
2023-04-22T00:48:45.626Z,25.09
2023-04-22T00:49:45.647Z,25.10
2023-04-22T00:50:45.644Z,25.10
2023-04-22T00:51:45.629Z,25.13
2023-04-22T00:52:45.595Z,25.13
2023-04-22T00:53:45.634Z,25.16
2023-04-22T00:54:45.612Z,25.17
2023-04-22T00:55:45.620Z,25.20
2023-04-22T00:56:45.663Z,25.23
2023-04-22T00:57:45.669Z,25.24
2023-04-22T00:58:45.663Z,25.24
2023-04-22T00:59:45.707Z,25.26
2023-04-22T01:00:45.754Z,25.30
2023-04-22T01:01:45.779Z,25.31
2023-04-22T01:02:45.905Z,25.30
2023-04-22T01:03:45.973Z,25.33
2023-04-22T01:04:45.964Z,25.34
2023-04-22T01:05:46.004Z,25.30
2023-04-22T01:06:46.031Z,25.30
2023-04-22T01:07:46.071Z,25.31
2023-04-22T01:08:46.064Z,25.31
2023-04-22T01:09:46.052Z,25.30
2023-04-22T01:10:46.085Z,25.29
2023-04-22T01:11:46.066Z,25.30
2023-04-22T01:12:46.076Z,25.29
2023-04-22T01:13:46.088Z,25.29
2023-04-22T01:14:46.077Z,25.27
2023-04-22T01:15:46.122Z,25.27
2023-04-22T01:16:46.089Z,25.30
2023-04-22T01:17:46.149Z,25.33
2023-04-22T01:18:46.161Z,25.31
2023-04-22T01:19:46.171Z,25.30
2023-04-22T01:20:46.164Z,25.31
2023-04-22T01:21:46.215Z,25.33
2023-04-22T01:22:46.197Z,25.34
2023-04-22T01:23:46.243Z,25.38
2023-04-22T01:24:46.299Z,25.40
2023-04-22T01:25:46.324Z,25.37
2023-04-22T01:26:46.355Z,25.38
2023-04-22T01:27:46.388Z,25.37
2023-04-22T01:28:46.410Z,25.38
2023-04-22T01:29:46.450Z,25.38
2023-04-22T01:30:46.486Z,25.37
2023-04-22T01:31:46.517Z,25.30
2023-04-22T01:32:46.464Z,25.26
2023-04-22T01:33:46.438Z,25.24
2023-04-22T01:34:46.472Z,25.22
2023-04-22T01:35:46.484Z,25.22
2023-04-22T01:36:46.442Z,25.22
2023-04-22T01:37:46.451Z,25.22
2023-04-22T01:38:46.468Z,25.20
2023-04-22T01:39:46.495Z,25.23
2023-04-22T01:40:46.483Z,25.26
2023-04-22T01:41:46.455Z,25.27
2023-04-22T01:42:46.458Z,25.27
2023-04-22T01:43:46.470Z,25.29
2023-04-22T01:44:46.476Z,25.30
2023-04-22T01:45:46.521Z,25.24
2023-04-22T01:46:46.508Z,25.26
2023-04-22T01:47:46.506Z,25.24
2023-04-22T01:48:46.500Z,25.24
2023-04-22T01:49:46.471Z,25.22
2023-04-22T01:50:46.469Z,25.20
2023-04-22T01:51:46.470Z,25.19
2023-04-22T01:52:46.480Z,25.16
2023-04-22T01:53:46.534Z,25.10
2023-04-22T01:54:46.530Z,25.07
2023-04-22T01:55:46.534Z,25.06
2023-04-22T01:56:46.560Z,25.06
2023-04-22T01:57:46.582Z,25.03
2023-04-22T01:58:46.602Z,25.03
2023-04-22T01:59:46.602Z,25.05
2023-04-22T02:00:46.618Z,25.03
2023-04-22T02:01:46.685Z,25.02
2023-04-22T02:02:46.740Z,24.99
2023-04-22T02:03:46.779Z,24.93
2023-04-22T02:04:46.729Z,24.90
2023-04-22T02:05:46.804Z,24.89
2023-04-22T02:06:46.753Z,24.92
2023-04-22T02:07:46.788Z,24.92
2023-04-22T02:08:46.810Z,24.94
2023-04-22T02:09:47.805Z,24.99
2023-04-22T02:10:47.040Z,24.99
2023-04-22T02:11:47.057Z,25.02
2023-04-22T02:12:47.031Z,25.02
2023-04-22T02:13:47.030Z,25.05
2023-04-22T02:14:47.044Z,25.05
2023-04-22T02:15:47.061Z,25.07
2023-04-22T02:16:47.036Z,25.07
2023-04-22T02:17:47.050Z,25.10
2023-04-22T02:18:47.065Z,25.09
2023-04-22T02:19:47.071Z,25.09
2023-04-22T02:20:47.067Z,25.10
2023-04-22T02:21:47.053Z,25.10
2023-04-22T02:22:47.104Z,25.09
2023-04-22T02:23:47.069Z,25.10
2023-04-22T02:24:47.025Z,25.13
2023-04-22T02:25:47.052Z,25.12
2023-04-22T02:26:47.020Z,25.14
2023-04-22T02:27:47.030Z,25.19
2023-04-22T02:28:47.072Z,25.19
2023-04-22T02:29:47.042Z,25.20
2023-04-22T02:30:47.089Z,25.22
2023-04-22T02:31:47.188Z,25.22
2023-04-22T02:32:47.097Z,25.20
2023-04-22T02:33:47.073Z,25.19
2023-04-22T02:34:47.062Z,25.22
2023-04-22T02:35:47.084Z,25.19
2023-04-22T02:36:47.100Z,25.17
2023-04-22T02:37:47.108Z,25.19
2023-04-22T02:38:47.069Z,25.19
2023-04-22T02:39:47.048Z,25.16
2023-04-22T02:40:47.110Z,25.17
2023-04-22T02:41:47.071Z,25.13
2023-04-22T02:42:47.059Z,25.13
2023-04-22T02:43:47.069Z,25.10
2023-04-22T02:44:47.078Z,25.10
2023-04-22T02:45:47.112Z,25.09
2023-04-22T02:46:47.135Z,25.10
2023-04-22T02:47:47.146Z,25.09
2023-04-22T02:48:47.134Z,25.09
2023-04-22T02:49:47.128Z,25.07
2023-04-22T02:50:47.141Z,25.10
2023-04-22T02:51:47.127Z,25.10
2023-04-22T02:52:47.115Z,25.10
2023-04-22T02:53:47.161Z,25.09
2023-04-22T02:54:47.153Z,25.06
2023-04-22T02:55:47.195Z,25.03
2023-04-22T02:56:47.198Z,24.94
2023-04-22T02:57:47.225Z,24.92
2023-04-22T02:58:47.276Z,24.87
2023-04-22T02:59:47.299Z,24.82
2023-04-22T03:00:47.384Z,24.80
2023-04-22T03:01:47.405Z,24.78
2023-04-22T03:02:47.509Z,24.73
2023-04-22T03:03:47.640Z,24.73
2023-04-22T03:04:47.560Z,24.75
2023-04-22T03:05:47.514Z,24.76
2023-04-22T03:06:47.556Z,24.76
2023-04-22T03:07:47.556Z,24.78
2023-04-22T03:08:47.620Z,24.83
2023-04-22T03:09:47.590Z,24.82
2023-04-22T03:10:47.654Z,24.87
2023-04-22T03:11:47.732Z,24.87
2023-04-22T03:12:47.666Z,24.90
2023-04-22T03:13:47.666Z,24.92
2023-04-22T03:14:47.674Z,24.96
2023-04-22T03:15:47.658Z,24.99
2023-04-22T03:16:47.792Z,25.00
2023-04-22T03:17:47.704Z,25.02
2023-04-22T03:18:47.679Z,25.07
2023-04-22T03:19:47.682Z,25.06
2023-04-22T03:20:47.652Z,25.10
2023-04-22T03:21:47.655Z,25.12
2023-04-22T03:22:47.685Z,25.12
2023-04-22T03:23:47.687Z,25.12
2023-04-22T03:24:47.673Z,25.10
2023-04-22T03:25:47.663Z,25.10
2023-04-22T03:26:47.709Z,25.12
2023-04-22T03:27:47.704Z,25.12
2023-04-22T03:28:47.688Z,25.12
2023-04-22T03:29:47.669Z,25.13
2023-04-22T03:30:47.676Z,25.13
2023-04-22T03:31:47.745Z,25.14
2023-04-22T03:32:47.706Z,25.16
2023-04-22T03:33:47.648Z,25.14
2023-04-22T03:34:47.654Z,25.12
2023-04-22T03:35:47.664Z,25.07
2023-04-22T03:36:47.756Z,25.03
2023-04-22T03:37:47.708Z,24.99
2023-04-22T03:38:47.759Z,24.96
2023-04-22T03:39:47.797Z,24.87
2023-04-22T03:40:47.847Z,24.85
2023-04-22T03:41:47.839Z,24.76
2023-04-22T03:42:47.905Z,24.76
2023-04-22T03:43:47.941Z,24.69
2023-04-22T03:44:47.983Z,24.68
2023-04-22T03:45:48.080Z,24.62
2023-04-22T03:46:48.110Z,24.59
2023-04-22T03:47:48.175Z,24.58
2023-04-22T03:48:48.184Z,24.56
2023-04-22T03:49:48.259Z,24.55
2023-04-22T03:50:48.307Z,24.54
2023-04-22T03:51:48.401Z,24.51
2023-04-22T03:52:48.423Z,24.49
2023-04-22T03:53:48.499Z,24.51
2023-04-22T03:54:48.550Z,24.52
2023-04-22T03:55:48.633Z,24.55
2023-04-22T03:56:48.646Z,24.55
2023-04-22T03:57:48.685Z,24.61
2023-04-22T03:58:48.713Z,24.61
2023-04-22T03:59:48.776Z,24.68
2023-04-22T04:00:48.798Z,24.69
2023-04-22T04:01:48.828Z,24.72
2023-04-22T04:02:48.984Z,24.75
2023-04-22T04:03:49.025Z,24.79
2023-04-22T04:04:49.127Z,24.79
2023-04-22T04:05:48.939Z,24.83
2023-04-22T04:06:48.873Z,24.85
2023-04-22T04:07:48.902Z,24.85
2023-04-22T04:08:48.921Z,24.89
2023-04-22T04:09:48.949Z,24.86
2023-04-22T04:10:48.943Z,24.89
2023-04-22T04:11:49.002Z,24.85
2023-04-22T04:12:48.974Z,24.85
2023-04-22T04:13:49.011Z,24.86
2023-04-22T04:14:49.009Z,24.85
2023-04-22T04:15:49.071Z,24.83
2023-04-22T04:16:49.095Z,24.82
2023-04-22T04:17:49.101Z,24.80
2023-04-22T04:18:49.113Z,24.83
2023-04-22T04:19:49.160Z,24.83
2023-04-22T04:20:49.220Z,24.82
2023-04-22T04:21:49.188Z,24.83
2023-04-22T04:22:49.194Z,24.82
2023-04-22T04:23:49.247Z,24.83
2023-04-22T04:24:49.260Z,24.82
2023-04-22T04:25:49.293Z,24.82
2023-04-22T04:26:49.295Z,24.83
2023-04-22T04:27:49.318Z,24.86
2023-04-22T04:28:49.295Z,24.87
2023-04-22T04:29:49.333Z,24.87
2023-04-22T04:30:49.402Z,24.90
2023-04-22T04:31:49.449Z,24.93
2023-04-22T04:32:49.444Z,24.93
2023-04-22T04:33:49.372Z,24.96
2023-04-22T04:34:49.359Z,24.97
2023-04-22T04:35:49.347Z,25.00
2023-04-22T04:36:49.377Z,25.05
2023-04-22T04:37:49.366Z,25.06
2023-04-22T04:38:49.360Z,25.06
2023-04-22T04:39:49.383Z,25.06
2023-04-22T04:40:49.330Z,25.09
2023-04-22T04:41:49.336Z,25.10
2023-04-22T04:42:49.317Z,25.12
2023-04-22T04:43:49.335Z,25.13
2023-04-22T04:44:49.323Z,25.14
2023-04-22T04:45:49.317Z,25.14
2023-04-22T04:46:49.394Z,25.13
2023-04-22T04:47:49.371Z,25.13
2023-04-22T04:48:49.321Z,25.14
2023-04-22T04:49:49.323Z,25.16
2023-04-22T04:50:49.312Z,25.14
2023-04-22T04:51:49.306Z,25.13
2023-04-22T04:52:49.491Z,25.12
2023-04-22T04:53:49.324Z,25.10
2023-04-22T04:54:49.321Z,25.09
2023-04-22T04:55:49.315Z,25.06
2023-04-22T04:56:49.374Z,25.00
2023-04-22T04:57:49.343Z,24.97
2023-04-22T04:58:49.378Z,24.93
2023-04-22T04:59:49.431Z,24.93
2023-04-22T05:00:49.424Z,24.90
2023-04-22T05:01:49.493Z,24.93
2023-04-22T05:02:49.576Z,24.90
2023-04-22T05:03:49.626Z,24.89
2023-04-22T05:04:49.633Z,24.92
2023-04-22T05:05:49.485Z,24.92
2023-04-22T05:06:49.535Z,24.90
2023-04-22T05:07:49.518Z,24.89
2023-04-22T05:08:49.574Z,24.89
2023-04-22T05:09:49.613Z,24.87
2023-04-22T05:10:49.597Z,24.89
2023-04-22T05:11:49.663Z,24.86
2023-04-22T05:12:49.668Z,24.89
2023-04-22T05:13:49.660Z,24.86
2023-04-22T05:14:49.705Z,24.87
2023-04-22T05:15:49.747Z,24.89
2023-04-22T05:16:49.811Z,24.89
2023-04-22T05:17:49.827Z,24.89
2023-04-22T05:18:49.825Z,24.90
2023-04-22T05:19:49.809Z,24.89
2023-04-22T05:20:49.836Z,24.87
2023-04-22T05:21:49.886Z,24.85
2023-04-22T05:22:49.908Z,24.86
2023-04-22T05:23:49.918Z,24.86
2023-04-22T05:24:49.953Z,24.87
2023-04-22T05:25:52.045Z,24.87
2023-04-22T05:26:49.967Z,24.87
2023-04-22T05:27:49.929Z,24.90
2023-04-22T05:28:49.941Z,24.90
2023-04-22T05:29:49.923Z,24.89
2023-04-22T05:30:49.929Z,24.89
2023-04-22T05:31:50.254Z,24.89
2023-04-22T05:32:50.055Z,24.92
2023-04-22T05:33:49.931Z,24.90
2023-04-22T05:34:49.915Z,24.90
2023-04-22T05:35:49.932Z,24.86
2023-04-22T05:36:49.867Z,24.85
2023-04-22T05:37:49.906Z,24.80
2023-04-22T05:38:49.855Z,24.78
2023-04-22T05:39:49.893Z,24.73
2023-04-22T05:40:49.904Z,24.68
2023-04-22T05:41:49.848Z,24.62
2023-04-22T05:42:49.839Z,24.56
2023-04-22T05:43:49.853Z,24.56
2023-04-22T05:44:49.859Z,24.55
2023-04-22T05:45:49.952Z,24.48
2023-04-22T05:46:49.837Z,24.47
2023-04-22T05:47:49.883Z,24.43
2023-04-22T05:48:49.807Z,24.39
2023-04-22T05:49:49.800Z,24.41
2023-04-22T05:50:49.784Z,24.42
2023-04-22T05:51:49.782Z,24.48
2023-04-22T05:52:49.797Z,24.49
2023-04-22T05:53:49.810Z,24.52
2023-04-22T05:54:49.778Z,24.54
2023-04-22T05:55:49.767Z,24.56
2023-04-22T05:56:49.769Z,24.59
2023-04-22T05:57:49.750Z,24.58
2023-04-22T05:58:49.720Z,24.61
2023-04-22T05:59:49.740Z,24.63
2023-04-22T06:00:49.715Z,24.63
2023-04-22T06:01:49.712Z,24.63
2023-04-22T06:02:49.863Z,24.65
2023-04-22T06:03:49.884Z,24.66
2023-04-22T06:04:50.340Z,24.70
2023-04-22T06:05:49.790Z,24.72
2023-04-22T06:06:49.691Z,24.73
2023-04-22T06:07:49.676Z,24.78
2023-04-22T06:08:49.642Z,24.83
2023-04-22T06:09:49.659Z,24.85
2023-04-22T06:10:49.671Z,24.85
2023-04-22T06:11:49.647Z,24.89
2023-04-22T06:12:49.645Z,24.92
2023-04-22T06:13:49.640Z,24.93
2023-04-22T06:14:49.613Z,24.94
2023-04-22T06:15:49.664Z,24.96
2023-04-22T06:16:49.671Z,24.96
2023-04-22T06:17:49.686Z,24.96
2023-04-22T06:18:49.672Z,24.90
2023-04-22T06:19:49.655Z,24.96
2023-04-22T06:20:49.711Z,24.92
2023-04-22T06:21:49.715Z,24.90
2023-04-22T06:22:49.736Z,24.89
2023-04-22T06:23:49.788Z,24.86
2023-04-22T06:24:49.804Z,24.85
2023-04-22T06:25:49.847Z,24.79
2023-04-22T06:26:49.873Z,24.79
2023-04-22T06:27:49.908Z,24.79
2023-04-22T06:28:49.978Z,24.78
2023-04-22T06:29:49.985Z,24.78
2023-04-22T06:30:50.090Z,24.78
2023-04-22T06:31:50.186Z,24.73
2023-04-22T06:32:50.131Z,24.76
2023-04-22T06:33:50.154Z,24.75
2023-04-22T06:34:50.169Z,24.73
2023-04-22T06:35:50.249Z,24.75
2023-04-22T06:36:50.340Z,24.78
2023-04-22T06:37:50.346Z,24.75
2023-04-22T06:38:50.367Z,24.75
2023-04-22T06:39:50.376Z,24.78
2023-04-22T06:40:50.411Z,24.80
2023-04-22T06:41:50.450Z,24.79
2023-04-22T06:42:50.456Z,24.82
2023-04-22T06:43:50.503Z,24.80
2023-04-22T06:44:50.518Z,24.82
2023-04-22T06:45:50.564Z,24.83
2023-04-22T06:46:50.693Z,24.83
2023-04-22T06:47:50.637Z,24.80
2023-04-22T06:48:50.693Z,24.80
2023-04-22T06:49:50.704Z,24.76
2023-04-22T06:50:50.720Z,24.78
2023-04-22T06:51:50.775Z,24.76
2023-04-22T06:52:50.793Z,24.75
2023-04-22T06:53:50.850Z,24.75
2023-04-22T06:54:50.896Z,24.72
2023-04-22T06:55:50.923Z,24.70
2023-04-22T06:56:50.978Z,24.69
2023-04-22T06:57:51.066Z,24.66
2023-04-22T06:58:51.086Z,24.63
2023-04-22T06:59:51.141Z,24.63
2023-04-22T07:00:51.202Z,24.63
2023-04-22T07:01:51.282Z,24.65
2023-04-22T07:02:51.342Z,24.62
2023-04-22T07:03:51.409Z,24.63
2023-04-22T07:04:51.378Z,24.63
2023-04-22T07:05:51.432Z,24.66
2023-04-22T07:06:51.480Z,24.66
2023-04-22T07:07:51.555Z,24.66
2023-04-22T07:08:51.604Z,24.68
2023-04-22T07:09:51.630Z,24.69
2023-04-22T07:10:51.671Z,24.68
2023-04-22T07:11:51.717Z,24.68
2023-04-22T07:12:51.771Z,24.69
2023-04-22T07:13:51.815Z,24.68
2023-04-22T07:14:51.888Z,24.65
2023-04-22T07:15:51.926Z,24.63
2023-04-22T07:16:52.043Z,24.62
2023-04-22T07:17:52.064Z,24.62
2023-04-22T07:18:52.080Z,24.65
2023-04-22T07:19:52.127Z,24.63
2023-04-22T07:20:52.173Z,24.61
2023-04-22T07:21:52.279Z,24.65
2023-04-22T07:22:52.300Z,24.66
2023-04-22T07:23:52.345Z,24.68
2023-04-22T07:24:52.406Z,24.66
2023-04-22T07:25:52.434Z,24.68
2023-04-22T07:26:52.474Z,24.66
2023-04-22T07:27:52.521Z,24.66
2023-04-22T07:28:52.593Z,24.66
2023-04-22T07:29:52.674Z,24.68
2023-04-22T07:30:52.728Z,24.65
2023-04-22T07:31:52.837Z,24.65
2023-04-22T07:32:52.802Z,24.65
2023-04-22T07:33:52.823Z,24.62
2023-04-22T07:34:52.898Z,24.63
2023-04-22T07:35:52.952Z,24.62
2023-04-22T07:36:52.990Z,24.62
2023-04-22T07:37:53.064Z,24.59
2023-04-22T07:38:53.088Z,24.63
2023-04-22T07:39:53.154Z,24.62
2023-04-22T07:40:53.197Z,24.65
2023-04-22T07:41:53.288Z,24.63
2023-04-22T07:42:53.284Z,24.63
2023-04-22T07:43:53.381Z,24.65
2023-04-22T07:44:53.404Z,24.65
2023-04-22T07:45:53.471Z,24.68
2023-04-22T07:46:53.487Z,24.62
2023-04-22T07:47:53.619Z,24.63
2023-04-22T07:48:53.617Z,24.63
2023-04-22T07:49:53.689Z,24.61
2023-04-22T07:50:53.742Z,24.56
2023-04-22T07:51:53.793Z,24.59
2023-04-22T07:52:53.879Z,24.58
2023-04-22T07:53:53.930Z,24.58
2023-04-22T07:54:53.962Z,24.56
2023-04-22T07:55:54.022Z,24.58
2023-04-22T07:56:54.082Z,24.59
2023-04-22T07:57:54.121Z,24.58
2023-04-22T07:58:54.203Z,24.59
2023-04-22T07:59:54.244Z,24.56
2023-04-22T08:00:54.306Z,24.61
2023-04-22T08:01:54.430Z,24.61
2023-04-22T08:02:54.519Z,24.61
2023-04-22T08:03:54.634Z,24.65
2023-04-22T08:04:54.596Z,24.63
2023-04-22T08:05:54.533Z,24.66
2023-04-22T08:06:54.584Z,24.69
2023-04-22T08:07:54.623Z,24.68
2023-04-22T08:08:54.658Z,24.69
2023-04-22T08:09:54.718Z,24.72
2023-04-22T08:10:54.776Z,24.73
2023-04-22T08:11:54.793Z,24.75
2023-04-22T08:12:54.818Z,24.73
2023-04-22T08:13:54.854Z,24.76
2023-04-22T08:14:54.908Z,24.76
2023-04-22T08:15:55.006Z,24.78
2023-04-22T08:16:54.992Z,24.78
2023-04-22T08:17:55.120Z,24.79
2023-04-22T08:18:55.082Z,24.79
2023-04-22T08:19:55.092Z,24.82
2023-04-22T08:20:55.756Z,24.79
2023-04-22T08:21:55.209Z,24.83
2023-04-22T08:22:55.267Z,24.82
2023-04-22T08:23:55.262Z,24.80
2023-04-22T08:24:55.277Z,24.82
2023-04-22T08:25:55.328Z,24.83
2023-04-22T08:26:55.353Z,24.83
2023-04-22T08:27:55.400Z,24.86
2023-04-22T08:28:55.447Z,24.86
2023-04-22T08:29:55.515Z,24.85
2023-04-22T08:30:55.583Z,24.83
2023-04-22T08:31:55.582Z,24.83
2023-04-22T08:32:55.626Z,24.83
2023-04-22T08:33:55.664Z,24.82
2023-04-22T08:35:03.933Z,24.83
2023-04-22T08:35:56.686Z,24.83
2023-04-22T08:36:55.657Z,24.83
2023-04-22T08:37:55.680Z,24.86
2023-04-22T08:38:55.654Z,24.87
2023-04-22T08:39:55.668Z,24.89
2023-04-22T08:40:55.629Z,24.92
2023-04-22T08:41:55.636Z,24.92
2023-04-22T08:42:55.732Z,24.94
2023-04-22T08:43:55.626Z,24.93
2023-04-22T08:44:55.632Z,24.97
2023-04-22T08:45:55.649Z,24.97
2023-04-22T08:46:55.689Z,24.97
2023-04-22T08:47:55.664Z,25.02
2023-04-22T08:48:55.585Z,25.03
2023-04-22T08:49:55.607Z,25.05
2023-04-22T08:50:55.564Z,25.02
2023-04-22T08:51:55.638Z,25.00
2023-04-22T08:52:55.637Z,25.00
2023-04-22T08:53:56.271Z,25.02
2023-04-22T08:54:55.701Z,25.03
2023-04-22T08:55:55.710Z,25.02
2023-04-22T08:56:55.717Z,25.00
2023-04-22T08:57:55.763Z,25.03
2023-04-22T08:58:55.792Z,25.03
2023-04-22T08:59:55.802Z,25.05
2023-04-22T09:00:55.826Z,25.05
2023-04-22T09:01:56.001Z,25.03
2023-04-22T09:02:55.996Z,25.05
2023-04-22T09:03:55.940Z,25.06
2023-04-22T09:04:55.909Z,25.06
2023-04-22T09:05:55.938Z,25.07
2023-04-22T09:06:55.945Z,25.03
2023-04-22T09:07:55.944Z,25.09
2023-04-22T09:08:56.000Z,25.07
2023-04-22T09:09:55.988Z,25.09
2023-04-22T09:10:56.028Z,25.10
2023-04-22T09:11:56.061Z,25.09
2023-04-22T09:12:56.064Z,25.06
2023-04-22T09:13:56.086Z,25.10
2023-04-22T09:14:56.076Z,25.07
2023-04-22T09:15:58.604Z,25.12
2023-04-22T09:16:56.102Z,25.13
2023-04-22T09:17:56.110Z,25.14
2023-04-22T09:18:56.079Z,25.13
2023-04-22T09:19:56.309Z,25.14
2023-04-22T09:20:56.047Z,25.14
2023-04-22T09:21:56.067Z,25.17
2023-04-22T09:22:56.064Z,25.14
2023-04-22T09:23:56.045Z,25.14
2023-04-22T09:24:56.038Z,25.17
2023-04-22T09:25:56.043Z,25.19
2023-04-22T09:26:56.024Z,25.16
2023-04-22T09:27:56.037Z,25.17
2023-04-22T09:28:56.030Z,25.17
2023-04-22T09:29:56.011Z,25.17
2023-04-22T09:30:55.992Z,25.14
2023-04-22T09:31:56.030Z,25.19
2023-04-22T09:32:56.099Z,25.17
2023-04-22T09:33:55.985Z,25.16
2023-04-22T09:34:55.981Z,25.16
2023-04-22T09:35:55.992Z,25.17
2023-04-22T09:36:55.950Z,25.19
2023-04-22T09:37:55.918Z,25.19
2023-04-22T09:38:55.938Z,25.20
2023-04-22T09:39:55.909Z,25.20
2023-04-22T09:40:55.898Z,25.23
2023-04-22T09:41:55.883Z,25.23
2023-04-22T09:42:55.884Z,25.23
2023-04-22T09:43:55.903Z,25.22
2023-04-22T09:44:55.863Z,25.23
2023-04-22T09:45:55.891Z,25.24
2023-04-22T09:46:55.880Z,25.26
2023-04-22T09:47:55.955Z,25.23
2023-04-22T09:48:55.866Z,25.26
2023-04-22T09:49:55.851Z,25.26
2023-04-22T09:50:55.832Z,25.26
2023-04-22T09:51:55.845Z,25.29
2023-04-22T09:52:55.842Z,25.29
2023-04-22T09:53:55.809Z,25.31
2023-04-22T09:54:55.832Z,25.31
2023-04-22T09:55:55.868Z,25.33
2023-04-22T09:56:55.893Z,25.31
2023-04-22T09:57:55.821Z,25.31
2023-04-22T09:58:55.766Z,25.31
2023-04-22T09:59:55.790Z,25.34
2023-04-22T10:00:55.798Z,25.34
2023-04-22T10:01:55.750Z,25.34
2023-04-22T10:02:55.841Z,25.37
2023-04-22T10:03:55.769Z,25.40
2023-04-22T10:04:55.745Z,25.38
2023-04-22T10:05:55.755Z,25.40
2023-04-22T10:06:55.730Z,25.38
2023-04-22T10:07:55.721Z,25.43
2023-04-22T10:08:55.736Z,25.45
2023-04-22T10:09:55.739Z,25.44
2023-04-22T10:10:55.721Z,25.47
2023-04-22T10:11:55.674Z,25.48
2023-04-22T10:12:55.682Z,25.50
2023-04-22T10:13:55.679Z,25.51
2023-04-22T10:14:55.665Z,25.50
2023-04-22T10:15:55.667Z,25.51
2023-04-22T10:16:55.711Z,25.51
2023-04-22T10:17:55.683Z,25.54
2023-04-22T10:18:55.659Z,25.57
2023-04-22T10:19:55.667Z,25.60
2023-04-22T10:20:55.647Z,25.61
2023-04-22T10:21:55.615Z,25.60
2023-04-22T10:22:55.607Z,25.60
2023-04-22T10:23:55.628Z,25.61
2023-04-22T10:24:55.610Z,25.64
2023-04-22T10:25:55.605Z,25.65
2023-04-22T10:26:56.779Z,25.64
2023-04-22T10:27:55.574Z,25.65
2023-04-22T10:28:55.617Z,25.68
2023-04-22T10:29:55.669Z,25.68
2023-04-22T10:30:55.743Z,25.67
2023-04-22T10:31:55.773Z,25.70
2023-04-22T10:32:55.892Z,25.70
2023-04-22T10:33:55.893Z,25.71
2023-04-22T10:34:55.966Z,25.71
2023-04-22T10:35:55.981Z,25.73
2023-04-22T10:36:56.062Z,25.74
2023-04-22T10:37:56.114Z,25.74
2023-04-22T10:38:56.178Z,25.75
2023-04-22T10:39:56.192Z,25.75
2023-04-22T10:40:56.238Z,25.77
2023-04-22T10:41:56.322Z,25.75
2023-04-22T10:42:56.358Z,25.74
2023-04-22T10:43:56.386Z,25.73
2023-04-22T10:44:56.460Z,25.75
2023-04-22T10:45:56.734Z,25.77
2023-04-22T10:46:56.616Z,25.75
2023-04-22T10:47:56.641Z,25.78
2023-04-22T10:48:56.646Z,25.74
2023-04-22T10:49:56.731Z,25.77
2023-04-22T10:50:56.765Z,25.78
2023-04-22T10:51:56.826Z,25.77
2023-04-22T10:52:56.900Z,25.75
2023-04-22T10:53:56.941Z,25.78
2023-04-22T10:54:57.041Z,25.77
2023-04-22T10:55:57.053Z,25.77
2023-04-22T10:56:58.182Z,25.77
2023-04-22T10:57:57.171Z,25.77
2023-04-22T10:58:57.264Z,25.80
2023-04-22T10:59:57.286Z,25.78
2023-04-22T11:00:57.348Z,25.81
2023-04-22T11:01:57.470Z,25.81
2023-04-22T11:02:57.574Z,25.80
2023-04-22T11:03:57.623Z,25.80
2023-04-22T11:04:57.604Z,25.81
2023-04-22T11:05:57.673Z,25.84
2023-04-22T11:06:57.744Z,25.84
2023-04-22T11:07:57.817Z,25.84
2023-04-22T11:08:57.848Z,25.85
2023-04-22T11:09:57.954Z,25.87
2023-04-22T11:10:57.977Z,25.85
2023-04-22T11:11:58.029Z,25.87
2023-04-22T11:12:58.113Z,25.87
2023-04-22T11:13:58.149Z,25.87
2023-04-22T11:14:58.238Z,25.88
2023-04-22T11:15:58.282Z,25.87
2023-04-22T11:16:58.338Z,25.91
2023-04-22T11:17:58.455Z,25.92
2023-04-22T11:18:58.446Z,25.88
2023-04-22T11:19:58.515Z,25.91
2023-04-22T11:20:58.550Z,25.91
2023-04-22T11:21:58.621Z,25.94
2023-04-22T11:22:58.683Z,25.94
2023-04-22T11:23:58.688Z,25.91
2023-04-22T11:24:58.773Z,25.94
2023-04-22T11:25:58.808Z,25.94
2023-04-22T11:26:58.925Z,25.95
2023-04-22T11:27:58.930Z,25.94
2023-04-22T11:28:58.996Z,25.94
2023-04-22T11:29:59.071Z,25.94
2023-04-22T11:30:59.116Z,25.94
2023-04-22T11:31:59.216Z,25.94
2023-04-22T11:32:59.271Z,25.96
2023-04-22T11:33:59.272Z,25.95
2023-04-22T11:34:59.367Z,25.96
2023-04-22T11:35:59.398Z,25.96
2023-04-22T11:36:59.469Z,25.99
2023-04-22T11:37:59.507Z,25.98
2023-04-22T11:38:59.591Z,25.98
2023-04-22T11:40:21.002Z,25.99
2023-04-22T11:41:00.583Z,25.99
2023-04-22T11:41:59.612Z,26.02
2023-04-22T11:42:59.606Z,25.99
2023-04-22T11:43:59.582Z,26.01
2023-04-22T11:44:59.577Z,25.99
2023-04-22T11:45:59.598Z,26.02
2023-04-22T11:46:59.545Z,26.04
2023-04-22T11:47:59.605Z,26.02
2023-04-22T11:48:59.547Z,26.04
2023-04-22T11:49:59.545Z,26.02
2023-04-22T11:50:59.512Z,26.04
2023-04-22T11:51:59.520Z,26.04
2023-04-22T11:52:59.570Z,26.02
2023-04-22T11:53:59.622Z,26.04
2023-04-22T11:54:59.682Z,26.02
2023-04-22T11:55:59.720Z,26.02
2023-04-22T11:56:59.767Z,26.01
2023-04-22T11:57:59.804Z,26.02
2023-04-22T11:58:59.882Z,26.04
2023-04-22T11:59:59.916Z,26.04
2023-04-22T12:00:59.962Z,26.04
2023-04-22T12:02:00.040Z,26.02
2023-04-22T12:03:00.213Z,26.05
2023-04-22T12:04:00.293Z,26.08
2023-04-22T12:05:00.142Z,26.08
2023-04-22T12:06:00.193Z,26.06
2023-04-22T12:07:00.238Z,26.06
2023-04-22T12:08:00.311Z,26.06
2023-04-22T12:09:00.318Z,26.06
2023-04-22T12:10:00.371Z,26.09
2023-04-22T12:11:00.408Z,26.06
2023-04-22T12:12:00.444Z,26.08
2023-04-22T12:13:00.447Z,26.09
2023-04-22T12:14:00.517Z,26.09
2023-04-22T12:15:00.549Z,26.11
2023-04-22T12:16:00.588Z,26.12
2023-04-22T12:17:00.659Z,26.12
2023-04-22T12:18:00.707Z,26.08
2023-04-22T12:19:00.676Z,26.11
2023-04-22T12:20:00.729Z,26.11
2023-04-22T12:21:00.773Z,26.12
2023-04-22T12:22:00.808Z,26.12
2023-04-22T12:23:00.833Z,26.14
2023-04-22T12:24:00.892Z,26.12
2023-04-22T12:25:00.936Z,26.12
2023-04-22T12:26:00.919Z,26.15
2023-04-22T12:27:00.960Z,26.15
2023-04-22T12:28:01.036Z,26.14
2023-04-22T12:29:01.051Z,26.15
2023-04-22T12:30:01.114Z,26.15
2023-04-22T12:31:01.132Z,26.15
2023-04-22T12:32:01.819Z,26.18
2023-04-22T12:33:01.204Z,26.15
2023-04-22T12:34:01.260Z,26.16
2023-04-22T12:35:01.296Z,26.16
2023-04-22T12:36:01.297Z,26.19
2023-04-22T12:37:01.320Z,26.18
2023-04-22T12:38:01.365Z,26.21
2023-04-22T12:39:01.419Z,26.18
2023-04-22T12:40:01.457Z,26.21
2023-04-22T12:41:01.456Z,26.19
2023-04-22T12:42:01.502Z,26.19
2023-04-22T12:43:01.528Z,26.18
2023-04-22T12:44:01.576Z,26.19
2023-04-22T12:45:01.637Z,26.21
2023-04-22T12:46:01.665Z,26.22
2023-04-22T12:47:01.664Z,26.21
2023-04-22T12:48:01.705Z,26.21
2023-04-22T12:49:01.761Z,26.24
2023-04-22T12:50:01.769Z,26.22
2023-04-22T12:51:01.852Z,26.24
2023-04-22T12:52:01.883Z,26.24
2023-04-22T12:53:01.891Z,26.24